Bakersfield, CA (93301)

12:59 AM PST on December 09, 2016 (GMT -0800)
E. Belle Terrace | | Change Station

Elev 386 ft 35.35 °N, 118.97 °W | Updated 60 seconds ago

Overcast
Overcast
57.8 °F
Feels Like 57.8 °F
N
0.0
Wind Variable Wind from ESE
Gusts 0.0 mph

Today
High -- | Low -- °F
--% Chance of Precip.
Yesterday
High -- | Low -- °F
Precip. -- in
Pressure 30.24 in
Visibility 3.0 miles
Clouds Overcast 2200 ft
Dew Point 56 °F
Humidity 94%
Rainfall 0.02 in
Snow Depth Not available.
6:53 AM 4:43 PM
Waxing Gibbous, 72% visible
METAR KBFL 090854Z AUTO 03003KT 3SM -RA BR OVC022 14/12 A3025 RMK AO2 SLP240 P0003 60003 T01390122 51001
Pressure 30.24 in
Visibility 3.0 miles
Clouds Overcast 2200 ft
Dew Point 56 °F
Humidity 94%
Rainfall 0.02 in
Snow Depth Not available.
6:53 AM 4:43 PM
Waxing Gibbous, 72% visible
METAR KBFL 090854Z AUTO 03003KT 3SM -RA BR OVC022 14/12 A3025 RMK AO2 SLP240 P0003 60003 T01390122 51001

10-Day Weather Forecast

Almanac

Astronomy

Dec. 09, 2016 Rise Set
Actual Time
Civil Twilight
Nautical Twilight
Astronomical Twilight
Moon
Length of Visible Light
Length of Day
Tomorrow will be .
, % of the Moon is Illuminated

Today's Extremes

State Highs State Lows

Community

WunderPhotos

Upload Photos

1,956,371 photos uploaded!

WunderBlog® & News

Nearby

Air Quality

  Air Quality AQ Index Pollutant
Not available.

Snow Depth

Station Depth Elevation

Earthquake Activity

City Distance Mag. Time & Date
Minimum magnitude displayed is 2.5.

Coastal Water Temperatures

Place Temperature

Stations

Nearby Weather Stations

Station Location Temp. Windchill Dew Point Humidity Wind Precip. Elev Updated Type
                   

Watches & Warnings

There are currently no watches in effect.